createdAt,value
2018-08-09T15:10:52.710Z,31.10
2018-08-09T15:13:23.092Z,30.50
2018-08-09T15:17:33.785Z,30.20
2018-08-09T15:20:05.834Z,29.80
2018-08-09T15:22:37.083Z,29.50
2018-08-09T15:25:09.246Z,29.30
2018-08-09T15:46:15.007Z,29.20
2018-08-09T15:48:45.988Z,29.60
2018-08-09T15:51:16.980Z,30.00
2018-08-09T15:53:47.472Z,30.30
2018-08-09T15:56:17.766Z,30.60
2018-08-09T15:58:48.163Z,30.70
2018-08-09T16:01:18.885Z,31.00
2018-08-09T16:03:49.170Z,31.20
2018-08-09T16:06:19.476Z,31.60
2018-08-09T16:08:50.125Z,31.40
2018-08-09T16:11:20.771Z,31.10
2018-08-09T16:13:51.462Z,31.00
2018-08-09T16:16:21.827Z,31.30
2018-08-09T16:18:52.633Z,31.50
2018-08-09T16:21:22.973Z,31.40
2018-08-09T16:23:53.630Z,31.50
2018-08-09T16:26:23.958Z,31.60
2018-08-09T16:28:54.312Z,31.80
2018-08-09T16:31:24.677Z,31.90
2018-08-09T16:33:55.129Z,32.30
2018-08-09T16:36:25.682Z,32.70
2018-08-09T16:38:55.948Z,32.70
2018-08-09T16:41:28.145Z,32.60
2018-08-09T16:43:58.392Z,32.20
2018-08-09T16:46:28.842Z,32.10
2018-08-09T16:48:59.196Z,32.10
2018-08-09T16:51:29.652Z,32.10
2018-08-09T16:54:00.205Z,32.30
2018-08-09T16:56:31.269Z,32.20
2018-08-09T16:59:02.109Z,32.20
2018-08-09T17:01:34.358Z,32.10
2018-08-09T17:04:04.849Z,32.00
2018-08-09T17:06:35.538Z,31.60
2018-08-09T17:09:11.665Z,31.40
2018-08-09T17:16:30.263Z,31.20
2018-08-09T17:19:00.597Z,30.70
2018-08-09T17:21:38.159Z,30.30
2018-08-09T17:24:10.582Z,29.90
2018-08-09T17:26:42.563Z,29.30
2018-08-09T17:29:13.207Z,28.80
2018-08-09T17:31:50.905Z,28.50
2018-08-09T17:34:21.970Z,28.40
2018-08-09T17:36:53.379Z,28.30
2018-08-09T17:39:24.875Z,28.30
2018-08-09T17:41:55.574Z,28.30
2018-08-09T17:44:26.625Z,28.20
2018-08-09T17:46:57.101Z,28.30
2018-08-09T17:49:28.121Z,28.30
2018-08-09T17:51:58.634Z,28.20
2018-08-09T17:54:29.031Z,27.90
2018-08-09T17:56:59.446Z,27.80
2018-08-09T17:59:29.872Z,27.50
2018-08-09T18:02:00.353Z,27.50
2018-08-09T18:04:30.676Z,27.50
2018-08-09T18:07:01.503Z,27.40
2018-08-09T18:09:31.752Z,27.10
2018-08-09T18:12:02.295Z,27.00
2018-08-09T18:14:32.675Z,26.80
2018-08-09T18:17:02.934Z,26.60
2018-08-09T18:19:33.235Z,26.70
2018-08-09T18:22:03.566Z,26.60
2018-08-09T18:24:33.912Z,26.40
2018-08-09T18:27:04.275Z,26.30
2018-08-09T18:29:34.586Z,26.30
2018-08-09T18:32:05.254Z,26.00
2018-08-09T18:34:35.569Z,25.90
2018-08-09T18:37:06.401Z,25.90
2018-08-09T18:39:36.678Z,25.70
2018-08-09T18:42:07.019Z,25.70
2018-08-09T18:44:37.310Z,25.60
2018-08-09T18:47:07.716Z,25.60
2018-08-09T18:49:38.058Z,25.70
2018-08-09T18:52:08.359Z,25.30
2018-08-09T18:54:38.667Z,25.10
2018-08-09T18:57:09.209Z,24.90
2018-08-09T18:59:39.545Z,24.80
2018-08-09T19:02:09.872Z,24.80
2018-08-09T19:04:40.186Z,24.60
2018-08-09T19:07:10.715Z,24.60
2018-08-09T19:09:41.076Z,24.50
2018-08-09T19:12:11.427Z,24.50
2018-08-09T19:14:41.844Z,24.50
2018-08-09T19:17:12.315Z,24.40
2018-08-09T19:19:42.738Z,24.30
2018-08-09T19:22:13.085Z,24.40
2018-08-09T19:24:43.842Z,24.40
2018-08-09T19:27:14.257Z,24.50
2018-08-09T19:29:45.052Z,24.40
2018-08-09T19:32:15.993Z,24.30
2018-08-09T19:34:46.762Z,24.30
2018-08-09T19:37:17.338Z,24.40
2018-08-09T19:39:49.130Z,24.50
2018-08-09T19:42:20.687Z,24.50
2018-08-09T19:44:51.334Z,24.50
2018-08-09T19:47:21.937Z,24.30
2018-08-09T19:49:53.725Z,24.40
2018-08-09T19:52:25.056Z,24.30
2018-08-09T19:54:56.773Z,24.30
2018-08-09T19:57:27.941Z,24.40
2018-08-09T19:59:59.005Z,24.40
2018-08-09T20:02:29.499Z,24.20
2018-08-09T20:05:00.035Z,24.10
2018-08-09T20:07:31.730Z,24.00
2018-08-09T20:10:02.224Z,24.00
2018-08-09T20:12:32.662Z,24.00
2018-08-09T20:15:04.878Z,23.90
2018-08-09T20:17:35.223Z,23.80
2018-08-09T20:20:07.070Z,23.80
2018-08-09T20:22:37.962Z,23.90
2018-08-09T20:25:10.003Z,23.80
2018-08-09T20:27:41.285Z,23.90
2018-08-09T20:30:13.795Z,23.90
2018-08-09T20:32:44.831Z,23.90
2018-08-09T20:35:24.752Z,23.90
2018-08-09T20:37:57.847Z,23.80
2018-08-09T20:40:28.321Z,23.90
2018-08-09T20:42:59.093Z,23.90
2018-08-09T20:45:29.839Z,24.00
2018-08-09T20:48:00.351Z,24.10
2018-08-09T20:50:30.778Z,24.00
2018-08-09T20:53:01.225Z,24.00
2018-08-09T20:55:31.657Z,24.00
2018-08-09T20:58:02.659Z,23.80
2018-08-09T21:00:34.378Z,23.60
2018-08-09T21:03:04.977Z,23.50
2018-08-09T21:05:37.074Z,23.70
2018-08-09T21:08:08.209Z,23.80
2018-08-09T21:10:38.682Z,23.70
2018-08-09T21:13:11.570Z,23.80
2018-08-09T21:15:43.616Z,23.80
2018-08-09T21:18:15.362Z,23.90
2018-08-09T21:20:45.852Z,24.00
2018-08-09T21:23:16.456Z,23.90
2018-08-09T21:25:47.067Z,24.00
2018-08-09T21:28:17.520Z,24.00
2018-08-09T21:30:48.958Z,24.10
2018-08-09T21:33:19.333Z,24.20
2018-08-09T21:35:49.872Z,24.20
2018-08-09T21:38:20.416Z,24.20
2018-08-09T21:40:51.023Z,24.10
2018-08-09T21:43:21.590Z,24.20
2018-08-09T21:45:52.304Z,24.10
2018-08-09T21:48:24.343Z,24.00
2018-08-09T21:50:55.920Z,24.00
2018-08-09T21:53:26.361Z,24.00
2018-08-09T21:55:57.500Z,23.90
2018-08-09T21:58:27.876Z,23.80
2018-08-09T22:01:01.580Z,23.70
2018-08-09T22:03:35.468Z,23.70
2018-08-09T22:06:11.416Z,23.60
2018-08-09T22:08:47.821Z,23.50
2018-08-09T22:11:23.643Z,23.50
2018-08-09T22:13:59.903Z,23.40
2018-08-09T22:16:36.764Z,23.40
2018-08-09T22:19:13.128Z,23.40
2018-08-09T22:22:53.035Z,23.40
2018-08-09T22:25:23.365Z,23.30
2018-08-09T22:27:54.243Z,23.30
2018-08-09T22:30:24.826Z,23.30
2018-08-09T22:32:55.517Z,23.20
2018-08-09T22:35:27.448Z,23.20
2018-08-09T22:37:58.309Z,23.30
2018-08-09T22:40:29.159Z,23.30
2018-08-09T22:42:59.524Z,23.20
2018-08-09T22:45:29.962Z,23.20
2018-08-09T22:48:00.847Z,23.20
2018-08-09T22:50:31.415Z,23.20
2018-08-09T22:53:02.039Z,23.20
2018-08-09T22:55:32.646Z,23.20
2018-08-09T22:58:04.040Z,23.10
2018-08-09T23:00:34.826Z,23.00
2018-08-09T23:03:09.392Z,23.00
2018-08-09T23:05:40.335Z,22.90
2018-08-09T23:08:12.889Z,22.90
2018-08-09T23:10:44.187Z,22.80
2018-08-09T23:13:15.978Z,22.70
2018-08-09T23:15:46.830Z,22.70
2018-08-09T23:18:17.410Z,22.60
2018-08-09T23:20:47.779Z,22.50
2018-08-09T23:23:18.134Z,22.50
2018-08-09T23:25:49.135Z,22.50
2018-08-09T23:28:19.729Z,22.50
2018-08-09T23:30:50.841Z,22.50
2018-08-09T23:33:24.354Z,22.50
2018-08-09T23:35:54.853Z,22.50
2018-08-09T23:38:25.755Z,22.40
2018-08-09T23:40:57.147Z,22.30
2018-08-09T23:43:28.216Z,22.30
2018-08-09T23:46:00.336Z,22.30
2018-08-09T23:48:33.474Z,22.20
2018-08-09T23:51:04.498Z,22.20
2018-08-09T23:53:36.391Z,22.20
2018-08-09T23:56:07.941Z,22.10
2018-08-09T23:58:40.451Z,22.20
